sensor_id;sensor_type;location;lat;lon;timestamp;temperature;humidity
66343;DHT22;53144;51.524;5.080;2023-12-28T00:00:46;10.36;87.33
66343;DHT22;53144;51.524;5.080;2023-12-28T00:03:11;10.37;87.01
66343;DHT22;53144;51.524;5.080;2023-12-28T00:05:36;10.29;87.39
66343;DHT22;53144;51.524;5.080;2023-12-28T00:08:02;10.27;87.42
66343;DHT22;53144;51.524;5.080;2023-12-28T00:10:27;10.29;87.60
66343;DHT22;53144;51.524;5.080;2023-12-28T00:12:53;10.30;87.52
66343;DHT22;53144;51.524;5.080;2023-12-28T00:15:19;10.29;87.49
66343;DHT22;53144;51.524;5.080;2023-12-28T00:17:44;10.27;87.70
66343;DHT22;53144;51.524;5.080;2023-12-28T00:20:10;10.21;88.05
66343;DHT22;53144;51.524;5.080;2023-12-28T00:22:36;10.29;87.73
66343;DHT22;53144;51.524;5.080;2023-12-28T00:25:05;10.27;87.98
66343;DHT22;53144;51.524;5.080;2023-12-28T00:27:30;10.20;88.34
66343;DHT22;53144;51.524;5.080;2023-12-28T00:29:56;10.20;88.71
66343;DHT22;53144;51.524;5.080;2023-12-28T00:32:21;10.17;88.73
66343;DHT22;53144;51.524;5.080;2023-12-28T00:34:46;10.21;88.54
66343;DHT22;53144;51.524;5.080;2023-12-28T00:37:12;10.20;88.62
66343;DHT22;53144;51.524;5.080;2023-12-28T00:39:37;10.26;88.59
66343;DHT22;53144;51.524;5.080;2023-12-28T00:42:04;10.20;88.80
66343;DHT22;53144;51.524;5.080;2023-12-28T00:44:29;10.10;89.24
66343;DHT22;53144;51.524;5.080;2023-12-28T00:46:55;10.10;89.19
66343;DHT22;53144;51.524;5.080;2023-12-28T00:49:20;10.20;88.77
66343;DHT22;53144;51.524;5.080;2023-12-28T00:51:45;10.19;88.73
66343;DHT22;53144;51.524;5.080;2023-12-28T00:54:11;10.23;88.83
66343;DHT22;53144;51.524;5.080;2023-12-28T00:56:36;10.23;88.84
66343;DHT22;53144;51.524;5.080;2023-12-28T00:59:01;10.19;89.28
66343;DHT22;53144;51.524;5.080;2023-12-28T01:01:27;10.16;89.58
66343;DHT22;53144;51.524;5.080;2023-12-28T01:03:55;10.27;89.02
66343;DHT22;53144;51.524;5.080;2023-12-28T01:06:21;10.30;88.91
66343;DHT22;53144;51.524;5.080;2023-12-28T01:08:46;10.24;89.13
66343;DHT22;53144;51.524;5.080;2023-12-28T01:11:11;10.26;89.18
66343;DHT22;53144;51.524;5.080;2023-12-28T01:13:37;10.19;89.55
66343;DHT22;53144;51.524;5.080;2023-12-28T01:16:03;10.20;89.77
66343;DHT22;53144;51.524;5.080;2023-12-28T01:18:29;10.21;89.51
66343;DHT22;53144;51.524;5.080;2023-12-28T01:20:54;10.21;89.54
66343;DHT22;53144;51.524;5.080;2023-12-28T01:23:20;10.21;89.62
66343;DHT22;53144;51.524;5.080;2023-12-28T01:25:45;10.09;90.03
66343;DHT22;53144;51.524;5.080;2023-12-28T01:28:10;10.10;89.96
66343;DHT22;53144;51.524;5.080;2023-12-28T01:30:36;10.09;90.29
66343;DHT22;53144;51.524;5.080;2023-12-28T01:33:01;10.06;90.49
66343;DHT22;53144;51.524;5.080;2023-12-28T01:35:26;10.07;90.50
66343;DHT22;53144;51.524;5.080;2023-12-28T01:37:52;10.12;90.36
66343;DHT22;53144;51.524;5.080;2023-12-28T01:40:17;10.12;90.22
66343;DHT22;53144;51.524;5.080;2023-12-28T01:42:43;10.16;90.18
66343;DHT22;53144;51.524;5.080;2023-12-28T01:45:10;10.13;90.22
66343;DHT22;53144;51.524;5.080;2023-12-28T01:47:35;10.12;90.54
66343;DHT22;53144;51.524;5.080;2023-12-28T01:50:01;10.07;90.62
66343;DHT22;53144;51.524;5.080;2023-12-28T01:52:28;10.10;90.67
66343;DHT22;53144;51.524;5.080;2023-12-28T01:54:53;10.07;90.77
66343;DHT22;53144;51.524;5.080;2023-12-28T01:57:19;10.07;90.93
66343;DHT22;53144;51.524;5.080;2023-12-28T01:59:44;10.07;91.01
66343;DHT22;53144;51.524;5.080;2023-12-28T02:02:10;10.02;91.30
66343;DHT22;53144;51.524;5.080;2023-12-28T02:04:36;10.00;91.40
66343;DHT22;53144;51.524;5.080;2023-12-28T02:07:01;10.03;91.26
66343;DHT22;53144;51.524;5.080;2023-12-28T02:09:27;10.13;91.19
66343;DHT22;53144;51.524;5.080;2023-12-28T02:11:52;10.06;91.31
66343;DHT22;53144;51.524;5.080;2023-12-28T02:14:20;10.19;90.86
66343;DHT22;53144;51.524;5.080;2023-12-28T02:19:50;10.19;90.82
66343;DHT22;53144;51.524;5.080;2023-12-28T02:22:17;10.30;90.40
66343;DHT22;53144;51.524;5.080;2023-12-28T02:27:26;10.26;90.63
66343;DHT22;53144;51.524;5.080;2023-12-28T02:29:52;10.23;90.64
66343;DHT22;53144;51.524;5.080;2023-12-28T02:32:22;10.12;91.06
66343;DHT22;53144;51.524;5.080;2023-12-28T02:34:52;10.20;90.91
66343;DHT22;53144;51.524;5.080;2023-12-28T02:37:19;10.20;90.84
66343;DHT22;53144;51.524;5.080;2023-12-28T02:39:46;10.29;90.52
66343;DHT22;53144;51.524;5.080;2023-12-28T02:42:16;10.21;90.76
66343;DHT22;53144;51.524;5.080;2023-12-28T02:44:41;10.13;91.27
66343;DHT22;53144;51.524;5.080;2023-12-28T02:47:07;10.21;90.52
66343;DHT22;53144;51.524;5.080;2023-12-28T02:49:32;10.29;90.46
66343;DHT22;53144;51.524;5.080;2023-12-28T02:51:57;10.26;90.57
66343;DHT22;53144;51.524;5.080;2023-12-28T02:54:23;10.26;90.50
66343;DHT22;53144;51.524;5.080;2023-12-28T02:56:51;10.27;90.09
66343;DHT22;53144;51.524;5.080;2023-12-28T02:59:16;10.20;90.34
66343;DHT22;53144;51.524;5.080;2023-12-28T03:01:42;10.32;90.02
66343;DHT22;53144;51.524;5.080;2023-12-28T03:04:07;10.36;89.62
66343;DHT22;53144;51.524;5.080;2023-12-28T03:06:34;10.36;89.89
66343;DHT22;53144;51.524;5.080;2023-12-28T03:09:00;10.40;89.69
66343;DHT22;53144;51.524;5.080;2023-12-28T03:11:25;10.44;89.78
66343;DHT22;53144;51.524;5.080;2023-12-28T03:13:51;10.51;89.35
66343;DHT22;53144;51.524;5.080;2023-12-28T03:16:16;10.48;89.64
66343;DHT22;53144;51.524;5.080;2023-12-28T03:18:42;10.57;89.19
66343;DHT22;53144;51.524;5.080;2023-12-28T03:21:07;10.57;89.44
66343;DHT22;53144;51.524;5.080;2023-12-28T03:23:32;10.54;89.31
66343;DHT22;53144;51.524;5.080;2023-12-28T03:26:00;10.57;88.95
66343;DHT22;53144;51.524;5.080;2023-12-28T03:28:26;10.60;88.99
66343;DHT22;53144;51.524;5.080;2023-12-28T03:30:51;10.63;88.75
66343;DHT22;53144;51.524;5.080;2023-12-28T03:33:17;10.63;88.72
66343;DHT22;53144;51.524;5.080;2023-12-28T03:35:42;10.65;88.46
66343;DHT22;53144;51.524;5.080;2023-12-28T03:38:07;10.69;88.25
66343;DHT22;53144;51.524;5.080;2023-12-28T03:40:32;10.68;88.49
66343;DHT22;53144;51.524;5.080;2023-12-28T03:42:58;10.68;88.22
66343;DHT22;53144;51.524;5.080;2023-12-28T03:45:23;10.67;88.15
66343;DHT22;53144;51.524;5.080;2023-12-28T03:47:49;10.68;88.38
66343;DHT22;53144;51.524;5.080;2023-12-28T03:50:16;10.63;88.42
66343;DHT22;53144;51.524;5.080;2023-12-28T03:52:41;10.60;88.68
66343;DHT22;53144;51.524;5.080;2023-12-28T03:55:07;10.56;88.72
66343;DHT22;53144;51.524;5.080;2023-12-28T03:57:32;10.61;88.62
66343;DHT22;53144;51.524;5.080;2023-12-28T03:59:58;10.68;88.06
66343;DHT22;53144;51.524;5.080;2023-12-28T04:02:24;10.65;88.19
66343;DHT22;53144;51.524;5.080;2023-12-28T04:04:52;10.68;88.04
66343;DHT22;53144;51.524;5.080;2023-12-28T04:07:20;10.71;87.77
66343;DHT22;53144;51.524;5.080;2023-12-28T04:09:46;10.75;87.38
66343;DHT22;53144;51.524;5.080;2023-12-28T04:12:11;10.81;87.08
66343;DHT22;53144;51.524;5.080;2023-12-28T04:14:36;10.79;87.22
66343;DHT22;53144;51.524;5.080;2023-12-28T04:17:02;10.78;86.98
66343;DHT22;53144;51.524;5.080;2023-12-28T04:19:27;10.79;86.66
66343;DHT22;53144;51.524;5.080;2023-12-28T04:21:52;10.79;86.45
66343;DHT22;53144;51.524;5.080;2023-12-28T04:24:21;10.84;85.85
66343;DHT22;53144;51.524;5.080;2023-12-28T04:26:46;10.86;85.89
66343;DHT22;53144;51.524;5.080;2023-12-28T04:29:12;10.74;86.41
66343;DHT22;53144;51.524;5.080;2023-12-28T04:31:41;10.77;86.49
66343;DHT22;53144;51.524;5.080;2023-12-28T04:34:09;10.72;86.86
66343;DHT22;53144;51.524;5.080;2023-12-28T04:36:41;10.74;86.65
66343;DHT22;53144;51.524;5.080;2023-12-28T04:39:07;10.84;86.38
66343;DHT22;53144;51.524;5.080;2023-12-28T04:41:33;10.88;85.97
66343;DHT22;53144;51.524;5.080;2023-12-28T04:43:58;10.84;86.28
66343;DHT22;53144;51.524;5.080;2023-12-28T04:46:24;10.88;86.35
66343;DHT22;53144;51.524;5.080;2023-12-28T04:48:49;10.85;86.51
66343;DHT22;53144;51.524;5.080;2023-12-28T04:51:14;10.78;86.91
66343;DHT22;53144;51.524;5.080;2023-12-28T04:53:40;10.82;86.96
66343;DHT22;53144;51.524;5.080;2023-12-28T04:56:05;10.78;86.94
66343;DHT22;53144;51.524;5.080;2023-12-28T04:58:32;10.77;86.97
66343;DHT22;53144;51.524;5.080;2023-12-28T05:00:57;10.81;86.60
66343;DHT22;53144;51.524;5.080;2023-12-28T05:03:23;10.88;86.43
66343;DHT22;53144;51.524;5.080;2023-12-28T05:05:51;10.79;86.66
66343;DHT22;53144;51.524;5.080;2023-12-28T05:08:16;10.77;86.32
66343;DHT22;53144;51.524;5.080;2023-12-28T05:10:42;10.63;86.86
66343;DHT22;53144;51.524;5.080;2023-12-28T05:13:07;10.64;86.78
66343;DHT22;53144;51.524;5.080;2023-12-28T05:15:32;10.64;86.67
66343;DHT22;53144;51.524;5.080;2023-12-28T05:17:57;10.57;87.01
66343;DHT22;53144;51.524;5.080;2023-12-28T05:20:23;10.57;87.13
66343;DHT22;53144;51.524;5.080;2023-12-28T05:22:51;10.57;86.93
66343;DHT22;53144;51.524;5.080;2023-12-28T05:25:17;10.54;87.39
66343;DHT22;53144;51.524;5.080;2023-12-28T05:27:42;10.61;87.02
66343;DHT22;53144;51.524;5.080;2023-12-28T05:30:08;10.60;87.44
66343;DHT22;53144;51.524;5.080;2023-12-28T05:32:34;10.58;87.00
66343;DHT22;53144;51.524;5.080;2023-12-28T05:35:00;10.67;86.69
66343;DHT22;53144;51.524;5.080;2023-12-28T05:37:25;10.67;86.62
66343;DHT22;53144;51.524;5.080;2023-12-28T05:39:51;10.65;86.73
66343;DHT22;53144;51.524;5.080;2023-12-28T05:42:16;10.69;86.54
66343;DHT22;53144;51.524;5.080;2023-12-28T05:44:42;10.69;86.49
66343;DHT22;53144;51.524;5.080;2023-12-28T05:47:07;10.72;86.36
66343;DHT22;53144;51.524;5.080;2023-12-28T05:49:32;10.81;85.54
66343;DHT22;53144;51.524;5.080;2023-12-28T05:51:58;10.81;86.08
66343;DHT22;53144;51.524;5.080;2023-12-28T05:54:23;10.75;86.14
66343;DHT22;53144;51.524;5.080;2023-12-28T05:56:49;10.78;85.96
66343;DHT22;53144;51.524;5.080;2023-12-28T05:59:14;10.72;86.22
66343;DHT22;53144;51.524;5.080;2023-12-28T06:01:43;10.79;85.81
66343;DHT22;53144;51.524;5.080;2023-12-28T06:04:08;10.81;85.77
66343;DHT22;53144;51.524;5.080;2023-12-28T06:06:34;10.85;85.93
66343;DHT22;53144;51.524;5.080;2023-12-28T06:08:59;10.81;86.14
66343;DHT22;53144;51.524;5.080;2023-12-28T06:11:24;10.77;86.31
66343;DHT22;53144;51.524;5.080;2023-12-28T06:13:50;10.78;86.14
66343;DHT22;53144;51.524;5.080;2023-12-28T06:16:15;10.78;86.09
66343;DHT22;53144;51.524;5.080;2023-12-28T06:18:41;10.88;85.65
66343;DHT22;53144;51.524;5.080;2023-12-28T06:21:07;10.77;86.49
66343;DHT22;53144;51.524;5.080;2023-12-28T06:23:33;10.78;86.25
66343;DHT22;53144;51.524;5.080;2023-12-28T06:25:58;10.79;86.04
66343;DHT22;53144;51.524;5.080;2023-12-28T06:28:24;10.81;85.86
66343;DHT22;53144;51.524;5.080;2023-12-28T06:30:49;10.84;85.74
66343;DHT22;53144;51.524;5.080;2023-12-28T06:33:14;10.84;85.75
66343;DHT22;53144;51.524;5.080;2023-12-28T06:35:41;10.81;85.20
66343;DHT22;53144;51.524;5.080;2023-12-28T06:38:06;10.88;84.90
66343;DHT22;53144;51.524;5.080;2023-12-28T06:40:31;10.95;84.29
66343;DHT22;53144;51.524;5.080;2023-12-28T06:42:57;10.98;84.04
66343;DHT22;53144;51.524;5.080;2023-12-28T06:45:22;10.95;84.14
66343;DHT22;53144;51.524;5.080;2023-12-28T06:47:52;10.88;84.46
66343;DHT22;53144;51.524;5.080;2023-12-28T06:50:21;10.84;84.82
66343;DHT22;53144;51.524;5.080;2023-12-28T06:52:46;10.75;85.17
66343;DHT22;53144;51.524;5.080;2023-12-28T06:55:12;10.69;85.61
66343;DHT22;53144;51.524;5.080;2023-12-28T06:57:37;10.69;85.08
66343;DHT22;53144;51.524;5.080;2023-12-28T07:00:02;10.68;85.41
66343;DHT22;53144;51.524;5.080;2023-12-28T07:02:29;10.64;85.60
66343;DHT22;53144;51.524;5.080;2023-12-28T07:04:54;10.68;85.17
66343;DHT22;53144;51.524;5.080;2023-12-28T07:07:20;10.72;85.13
66343;DHT22;53144;51.524;5.080;2023-12-28T07:09:45;10.75;85.20
66343;DHT22;53144;51.524;5.080;2023-12-28T07:12:10;10.72;85.37
66343;DHT22;53144;51.524;5.080;2023-12-28T07:14:36;10.79;85.17
66343;DHT22;53144;51.524;5.080;2023-12-28T07:17:01;10.72;85.29
66343;DHT22;53144;51.524;5.080;2023-12-28T07:19:26;10.72;85.19
66343;DHT22;53144;51.524;5.080;2023-12-28T07:21:52;10.71;85.30
66343;DHT22;53144;51.524;5.080;2023-12-28T07:24:17;10.74;85.06
66343;DHT22;53144;51.524;5.080;2023-12-28T07:26:43;10.77;85.18
66343;DHT22;53144;51.524;5.080;2023-12-28T07:29:08;10.75;85.36
66343;DHT22;53144;51.524;5.080;2023-12-28T07:31:33;10.77;85.07
66343;DHT22;53144;51.524;5.080;2023-12-28T07:33:59;10.77;85.21
66343;DHT22;53144;51.524;5.080;2023-12-28T07:36:24;10.84;84.73
66343;DHT22;53144;51.524;5.080;2023-12-28T07:38:49;10.77;85.06
66343;DHT22;53144;51.524;5.080;2023-12-28T07:41:15;10.72;85.57
66343;DHT22;53144;51.524;5.080;2023-12-28T07:43:40;10.67;85.62
66343;DHT22;53144;51.524;5.080;2023-12-28T07:46:06;10.71;86.00
66343;DHT22;53144;51.524;5.080;2023-12-28T07:48:31;10.65;85.72
66343;DHT22;53144;51.524;5.080;2023-12-28T07:50:57;10.61;85.82
66343;DHT22;53144;51.524;5.080;2023-12-28T07:53:23;10.61;85.98
66343;DHT22;53144;51.524;5.080;2023-12-28T07:55:48;10.64;85.71
66343;DHT22;53144;51.524;5.080;2023-12-28T07:58:14;10.53;86.48
66343;DHT22;53144;51.524;5.080;2023-12-28T08:00:40;10.54;86.00
66343;DHT22;53144;51.524;5.080;2023-12-28T08:03:05;10.67;85.63
66343;DHT22;53144;51.524;5.080;2023-12-28T08:05:30;10.61;85.75
66343;DHT22;53144;51.524;5.080;2023-12-28T08:07:56;10.60;85.80
66343;DHT22;53144;51.524;5.080;2023-12-28T08:10:21;10.65;85.92
66343;DHT22;53144;51.524;5.080;2023-12-28T08:12:46;10.64;85.30
66343;DHT22;53144;51.524;5.080;2023-12-28T08:15:12;10.61;85.69
66343;DHT22;53144;51.524;5.080;2023-12-28T08:17:37;10.68;85.57
66343;DHT22;53144;51.524;5.080;2023-12-28T08:20:03;10.65;85.63
66343;DHT22;53144;51.524;5.080;2023-12-28T08:22:29;10.64;85.54
66343;DHT22;53144;51.524;5.080;2023-12-28T08:24:54;10.65;85.55
66343;DHT22;53144;51.524;5.080;2023-12-28T08:27:19;10.63;85.82
66343;DHT22;53144;51.524;5.080;2023-12-28T08:29:45;10.64;85.24
66343;DHT22;53144;51.524;5.080;2023-12-28T08:32:11;10.58;85.79
66343;DHT22;53144;51.524;5.080;2023-12-28T08:34:36;10.68;85.49
66343;DHT22;53144;51.524;5.080;2023-12-28T08:37:03;10.71;85.35
66343;DHT22;53144;51.524;5.080;2023-12-28T08:39:28;10.69;85.26
66343;DHT22;53144;51.524;5.080;2023-12-28T08:41:53;10.69;85.45
66343;DHT22;53144;51.524;5.080;2023-12-28T08:44:19;10.74;85.00
66343;DHT22;53144;51.524;5.080;2023-12-28T08:46:44;10.71;85.30
66343;DHT22;53144;51.524;5.080;2023-12-28T08:49:11;10.72;85.49
66343;DHT22;53144;51.524;5.080;2023-12-28T08:51:36;10.68;85.53
66343;DHT22;53144;51.524;5.080;2023-12-28T08:54:01;10.68;85.55
66343;DHT22;53144;51.524;5.080;2023-12-28T08:56:27;10.65;86.13
66343;DHT22;53144;51.524;5.080;2023-12-28T08:58:52;10.74;85.60
66343;DHT22;53144;51.524;5.080;2023-12-28T09:01:20;10.75;85.29
66343;DHT22;53144;51.524;5.080;2023-12-28T09:03:51;10.75;85.55
66343;DHT22;53144;51.524;5.080;2023-12-28T09:06:17;10.79;85.58
66343;DHT22;53144;51.524;5.080;2023-12-28T09:08:51;10.79;85.10
66343;DHT22;53144;51.524;5.080;2023-12-28T09:11:19;10.82;85.70
66343;DHT22;53144;51.524;5.080;2023-12-28T09:13:55;10.77;85.28
66343;DHT22;53144;51.524;5.080;2023-12-28T09:16:32;10.79;85.31
66343;DHT22;53144;51.524;5.080;2023-12-28T09:19:05;10.77;84.63
66343;DHT22;53144;51.524;5.080;2023-12-28T09:21:40;10.84;85.06
66343;DHT22;53144;51.524;5.080;2023-12-28T09:24:08;10.84;85.13
66343;DHT22;53144;51.524;5.080;2023-12-28T09:26:35;10.78;85.24
66343;DHT22;53144;51.524;5.080;2023-12-28T09:29:07;10.82;85.11
66343;DHT22;53144;51.524;5.080;2023-12-28T09:34:11;10.81;84.91
66343;DHT22;53144;51.524;5.080;2023-12-28T09:36:41;10.86;84.71
66343;DHT22;53144;51.524;5.080;2023-12-28T09:39:07;10.89;84.80
66343;DHT22;53144;51.524;5.080;2023-12-28T09:41:41;10.92;84.67
66343;DHT22;53144;51.524;5.080;2023-12-28T09:44:13;10.88;85.45
66343;DHT22;53144;51.524;5.080;2023-12-28T09:46:44;10.89;84.78
66343;DHT22;53144;51.524;5.080;2023-12-28T09:49:16;10.95;84.79
66343;DHT22;53144;51.524;5.080;2023-12-28T09:51:43;10.86;85.04
66343;DHT22;53144;51.524;5.080;2023-12-28T09:54:12;10.84;84.82
66343;DHT22;53144;51.524;5.080;2023-12-28T09:56:45;10.92;85.11
66343;DHT22;53144;51.524;5.080;2023-12-28T09:59:11;10.96;84.51
66343;DHT22;53144;51.524;5.080;2023-12-28T10:01:38;11.01;84.74
66343;DHT22;53144;51.524;5.080;2023-12-28T10:04:04;11.06;84.44
66343;DHT22;53144;51.524;5.080;2023-12-28T10:06:29;11.11;84.10
66343;DHT22;53144;51.524;5.080;2023-12-28T10:08:55;11.20;84.10
66343;DHT22;53144;51.524;5.080;2023-12-28T10:11:21;11.16;83.42
66343;DHT22;53144;51.524;5.080;2023-12-28T10:13:48;11.15;83.73
66343;DHT22;53144;51.524;5.080;2023-12-28T10:16:16;11.15;83.47
66343;DHT22;53144;51.524;5.080;2023-12-28T10:18:42;11.12;83.52
66343;DHT22;53144;51.524;5.080;2023-12-28T10:21:08;11.15;84.01
66343;DHT22;53144;51.524;5.080;2023-12-28T10:23:33;11.15;83.73
66343;DHT22;53144;51.524;5.080;2023-12-28T10:25:59;11.18;83.77
66343;DHT22;53144;51.524;5.080;2023-12-28T10:28:25;11.33;83.29
66343;DHT22;53144;51.524;5.080;2023-12-28T10:30:54;11.39;82.53
66343;DHT22;53144;51.524;5.080;2023-12-28T10:33:20;11.47;83.07
66343;DHT22;53144;51.524;5.080;2023-12-28T10:35:45;11.56;82.55
66343;DHT22;53144;51.524;5.080;2023-12-28T10:38:13;11.60;82.24
66343;DHT22;53144;51.524;5.080;2023-12-28T10:40:41;11.62;82.36
66343;DHT22;53144;51.524;5.080;2023-12-28T10:43:08;11.57;82.67
66343;DHT22;53144;51.524;5.080;2023-12-28T10:45:37;11.56;82.44
66343;DHT22;53144;51.524;5.080;2023-12-28T10:48:09;11.57;82.53
66343;DHT22;53144;51.524;5.080;2023-12-28T10:50:43;11.64;82.70
66343;DHT22;53144;51.524;5.080;2023-12-28T11:01:54;11.63;81.89
66343;DHT22;53144;51.524;5.080;2023-12-28T11:04:41;11.74;82.07
66343;DHT22;53144;51.524;5.080;2023-12-28T11:07:09;11.69;82.30
66343;DHT22;53144;51.524;5.080;2023-12-28T11:09:37;11.73;82.06
66343;DHT22;53144;51.524;5.080;2023-12-28T11:12:04;11.73;82.68
66343;DHT22;53144;51.524;5.080;2023-12-28T11:14:31;11.62;81.29
66343;DHT22;53144;51.524;5.080;2023-12-28T11:16:58;11.63;81.69
66343;DHT22;53144;51.524;5.080;2023-12-28T11:19:25;11.63;81.94
66343;DHT22;53144;51.524;5.080;2023-12-28T11:21:51;11.60;82.15
66343;DHT22;53144;51.524;5.080;2023-12-28T11:24:17;11.62;81.48
66343;DHT22;53144;51.524;5.080;2023-12-28T11:26:43;11.67;81.79
66343;DHT22;53144;51.524;5.080;2023-12-28T11:29:08;11.64;81.97
66343;DHT22;53144;51.524;5.080;2023-12-28T11:31:35;11.66;82.08
66343;DHT22;53144;51.524;5.080;2023-12-28T11:34:04;11.60;81.96
66343;DHT22;53144;51.524;5.080;2023-12-28T11:36:34;11.57;81.75
66343;DHT22;53144;51.524;5.080;2023-12-28T11:39:06;11.53;81.81
66343;DHT22;53144;51.524;5.080;2023-12-28T11:41:35;11.50;82.45
66343;DHT22;53144;51.524;5.080;2023-12-28T11:44:02;11.49;82.70
66343;DHT22;53144;51.524;5.080;2023-12-28T11:46:34;11.42;81.75
66343;DHT22;53144;51.524;5.080;2023-12-28T11:49:07;11.40;82.53
66343;DHT22;53144;51.524;5.080;2023-12-28T11:51:36;11.40;82.56
66343;DHT22;53144;51.524;5.080;2023-12-28T11:54:03;11.40;82.94
66343;DHT22;53144;51.524;5.080;2023-12-28T11:56:32;11.43;82.35
66343;DHT22;53144;51.524;5.080;2023-12-28T11:59:00;11.43;83.00
66343;DHT22;53144;51.524;5.080;2023-12-28T12:01:25;11.43;83.07
66343;DHT22;53144;51.524;5.080;2023-12-28T12:03:51;11.30;82.74
66343;DHT22;53144;51.524;5.080;2023-12-28T12:06:16;11.32;83.09
66343;DHT22;53144;51.524;5.080;2023-12-28T12:08:45;11.30;83.41
66343;DHT22;53144;51.524;5.080;2023-12-28T12:11:12;11.26;83.55
66343;DHT22;53144;51.524;5.080;2023-12-28T12:13:37;11.29;84.22
66343;DHT22;53144;51.524;5.080;2023-12-28T12:16:03;11.26;82.79
66343;DHT22;53144;51.524;5.080;2023-12-28T12:18:32;11.35;83.70
66343;DHT22;53144;51.524;5.080;2023-12-28T12:20:57;11.33;83.26
66343;DHT22;53144;51.524;5.080;2023-12-28T12:23:23;11.30;83.23
66343;DHT22;53144;51.524;5.080;2023-12-28T12:25:48;11.32;83.36
66343;DHT22;53144;51.524;5.080;2023-12-28T12:28:14;11.26;83.53
66343;DHT22;53144;51.524;5.080;2023-12-28T12:30:40;11.27;83.19
66343;DHT22;53144;51.524;5.080;2023-12-28T12:33:05;11.27;83.15
66343;DHT22;53144;51.524;5.080;2023-12-28T12:35:31;11.36;83.36
66343;DHT22;53144;51.524;5.080;2023-12-28T12:37:57;11.29;83.08
66343;DHT22;53144;51.524;5.080;2023-12-28T12:40:22;11.26;82.95
66343;DHT22;53144;51.524;5.080;2023-12-28T12:42:54;11.27;83.46
66343;DHT22;53144;51.524;5.080;2023-12-28T12:45:20;11.32;82.93
66343;DHT22;53144;51.524;5.080;2023-12-28T12:47:47;11.29;82.91
66343;DHT22;53144;51.524;5.080;2023-12-28T12:50:12;11.33;83.18
66343;DHT22;53144;51.524;5.080;2023-12-28T12:52:38;11.37;83.29
66343;DHT22;53144;51.524;5.080;2023-12-28T12:55:04;11.39;83.41
66343;DHT22;53144;51.524;5.080;2023-12-28T12:57:29;11.39;82.67
66343;DHT22;53144;51.524;5.080;2023-12-28T12:59:55;11.39;82.98
66343;DHT22;53144;51.524;5.080;2023-12-28T13:02:24;11.39;83.34
66343;DHT22;53144;51.524;5.080;2023-12-28T13:04:53;11.36;82.71
66343;DHT22;53144;51.524;5.080;2023-12-28T13:07:19;11.39;82.53
66343;DHT22;53144;51.524;5.080;2023-12-28T13:09:45;11.33;83.31
66343;DHT22;53144;51.524;5.080;2023-12-28T13:12:11;11.37;82.72
66343;DHT22;53144;51.524;5.080;2023-12-28T13:14:36;11.30;83.50
66343;DHT22;53144;51.524;5.080;2023-12-28T13:17:01;11.43;83.35
66343;DHT22;53144;51.524;5.080;2023-12-28T13:19:27;11.36;83.70
66343;DHT22;53144;51.524;5.080;2023-12-28T13:21:53;11.39;82.96
66343;DHT22;53144;51.524;5.080;2023-12-28T13:24:21;11.40;83.43
66343;DHT22;53144;51.524;5.080;2023-12-28T13:26:49;11.40;83.02
66343;DHT22;53144;51.524;5.080;2023-12-28T13:29:15;11.39;83.49
66343;DHT22;53144;51.524;5.080;2023-12-28T13:31:40;11.40;83.57
66343;DHT22;53144;51.524;5.080;2023-12-28T13:34:06;11.44;83.72
66343;DHT22;53144;51.524;5.080;2023-12-28T13:36:31;11.40;83.71
66343;DHT22;53144;51.524;5.080;2023-12-28T13:38:56;11.35;83.73
66343;DHT22;53144;51.524;5.080;2023-12-28T13:41:22;11.36;83.25
66343;DHT22;53144;51.524;5.080;2023-12-28T13:43:47;11.40;83.87
66343;DHT22;53144;51.524;5.080;2023-12-28T13:46:13;11.42;83.87
66343;DHT22;53144;51.524;5.080;2023-12-28T13:48:38;11.43;83.92
66343;DHT22;53144;51.524;5.080;2023-12-28T13:51:08;11.37;83.85
66343;DHT22;53144;51.524;5.080;2023-12-28T13:53:33;11.44;83.20
66343;DHT22;53144;51.524;5.080;2023-12-28T13:56:06;11.40;83.15
66343;DHT22;53144;51.524;5.080;2023-12-28T13:58:32;11.35;83.81
66343;DHT22;53144;51.524;5.080;2023-12-28T14:00:57;11.43;83.67
66343;DHT22;53144;51.524;5.080;2023-12-28T14:03:22;11.37;83.17
66343;DHT22;53144;51.524;5.080;2023-12-28T14:05:48;11.37;83.02
66343;DHT22;53144;51.524;5.080;2023-12-28T14:08:15;11.32;83.81
66343;DHT22;53144;51.524;5.080;2023-12-28T14:10:40;11.39;83.01
66343;DHT22;53144;51.524;5.080;2023-12-28T14:13:05;11.42;82.85
66343;DHT22;53144;51.524;5.080;2023-12-28T14:15:31;11.46;82.75
66343;DHT22;53144;51.524;5.080;2023-12-28T14:17:56;11.37;83.13
66343;DHT22;53144;51.524;5.080;2023-12-28T14:20:22;11.36;82.58
66343;DHT22;53144;51.524;5.080;2023-12-28T14:22:47;11.39;83.02
66343;DHT22;53144;51.524;5.080;2023-12-28T14:25:13;11.44;82.33
66343;DHT22;53144;51.524;5.080;2023-12-28T14:27:41;11.37;82.87
66343;DHT22;53144;51.524;5.080;2023-12-28T14:30:07;11.39;83.05
66343;DHT22;53144;51.524;5.080;2023-12-28T14:32:35;11.40;82.37
66343;DHT22;53144;51.524;5.080;2023-12-28T14:35:00;11.40;81.89
66343;DHT22;53144;51.524;5.080;2023-12-28T14:37:26;11.40;82.14
66343;DHT22;53144;51.524;5.080;2023-12-28T14:39:51;11.39;82.38
66343;DHT22;53144;51.524;5.080;2023-12-28T14:42:17;11.35;82.89
66343;DHT22;53144;51.524;5.080;2023-12-28T14:44:42;11.32;82.51
66343;DHT22;53144;51.524;5.080;2023-12-28T14:47:08;11.33;82.47
66343;DHT22;53144;51.524;5.080;2023-12-28T14:49:33;11.27;82.41
66343;DHT22;53144;51.524;5.080;2023-12-28T14:51:59;11.29;82.54
66343;DHT22;53144;51.524;5.080;2023-12-28T14:54:24;11.27;82.65
66343;DHT22;53144;51.524;5.080;2023-12-28T14:56:51;11.27;82.54
66343;DHT22;53144;51.524;5.080;2023-12-28T14:59:20;11.27;83.27
66343;DHT22;53144;51.524;5.080;2023-12-28T15:01:46;11.19;83.59
66343;DHT22;53144;51.524;5.080;2023-12-28T15:04:11;11.18;83.21
66343;DHT22;53144;51.524;5.080;2023-12-28T15:06:37;11.18;83.36
66343;DHT22;53144;51.524;5.080;2023-12-28T15:09:02;11.14;83.36
66343;DHT22;53144;51.524;5.080;2023-12-28T15:11:27;11.15;83.45
66343;DHT22;53144;51.524;5.080;2023-12-28T15:13:53;11.04;83.82
66343;DHT22;53144;51.524;5.080;2023-12-28T15:16:20;10.98;84.06
66343;DHT22;53144;51.524;5.080;2023-12-28T15:18:45;11.05;84.03
66343;DHT22;53144;51.524;5.080;2023-12-28T15:21:11;10.96;83.69
66343;DHT22;53144;51.524;5.080;2023-12-28T15:23:37;10.91;83.91
66343;DHT22;53144;51.524;5.080;2023-12-28T15:26:03;10.95;83.77
66343;DHT22;53144;51.524;5.080;2023-12-28T15:28:28;10.95;83.69
66343;DHT22;53144;51.524;5.080;2023-12-28T15:30:53;10.98;84.06
66343;DHT22;53144;51.524;5.080;2023-12-28T15:33:19;10.99;83.66
66343;DHT22;53144;51.524;5.080;2023-12-28T15:35:44;10.99;83.61
66343;DHT22;53144;51.524;5.080;2023-12-28T15:38:10;11.02;83.27
66343;DHT22;53144;51.524;5.080;2023-12-28T15:40:35;11.01;83.14